createdAt,value
2019-02-19T00:01:00.990Z,67.54
2019-02-19T00:03:28.657Z,67.66
2019-02-19T00:05:56.332Z,67.82
2019-02-19T00:08:23.997Z,68.14
2019-02-19T00:10:51.650Z,68.38
2019-02-19T00:13:19.314Z,68.50
2019-02-19T00:15:46.969Z,69.01
2019-02-19T00:18:14.629Z,68.39
2019-02-19T00:20:42.298Z,68.59
2019-02-19T00:23:09.965Z,69.37
2019-02-19T00:25:37.621Z,68.86
2019-02-19T00:28:05.289Z,68.87
2019-02-19T00:30:32.942Z,69.55
2019-02-19T00:33:00.600Z,69.49
2019-02-19T00:35:28.258Z,70.10
2019-02-19T00:37:55.916Z,70.30
2019-02-19T00:40:23.574Z,70.50
2019-02-19T00:42:51.229Z,70.77
2019-02-19T00:45:18.893Z,71.20
2019-02-19T00:47:46.553Z,71.22
2019-02-19T00:50:14.224Z,71.39
2019-02-19T00:52:41.878Z,71.22
2019-02-19T00:55:09.540Z,71.65
2019-02-19T00:57:37.200Z,71.77
2019-02-19T01:00:04.865Z,71.64
2019-02-19T01:02:32.524Z,72.13
2019-02-19T01:05:00.275Z,72.24
2019-02-19T01:07:28.126Z,72.14
2019-02-19T01:09:55.781Z,72.25
2019-02-19T01:12:23.458Z,72.04
2019-02-19T01:14:51.131Z,71.66
2019-02-19T01:17:18.789Z,72.11
2019-02-19T01:19:46.458Z,72.43
2019-02-19T01:22:14.110Z,72.73
2019-02-19T01:24:41.770Z,72.62
2019-02-19T01:27:09.453Z,72.64
2019-02-19T01:29:37.125Z,72.06
2019-02-19T01:32:04.788Z,71.46
2019-02-19T01:34:32.475Z,72.14
2019-02-19T01:37:00.140Z,72.43
2019-02-19T01:39:27.797Z,73.00
2019-02-19T01:41:55.460Z,73.03
2019-02-19T01:44:23.121Z,72.93
2019-02-19T01:46:50.782Z,73.34
2019-02-19T01:49:18.445Z,73.27
2019-02-19T01:51:46.118Z,73.20
2019-02-19T01:54:13.849Z,72.53
2019-02-19T01:56:41.503Z,73.05
2019-02-19T01:59:09.168Z,72.81
2019-02-19T02:01:36.813Z,72.93
2019-02-19T02:04:04.491Z,73.82
2019-02-19T02:06:32.162Z,73.38
2019-02-19T02:08:59.804Z,74.21
2019-02-19T02:11:27.474Z,73.91
2019-02-19T02:13:55.135Z,74.18
2019-02-19T02:16:22.797Z,74.09
2019-02-19T02:18:50.457Z,73.84
2019-02-19T02:21:18.136Z,74.11
2019-02-19T02:23:45.953Z,74.04
2019-02-19T02:26:13.610Z,74.11
2019-02-19T02:28:41.275Z,74.74
2019-02-19T02:31:08.941Z,74.72
2019-02-19T02:33:36.600Z,75.12
2019-02-19T02:36:04.259Z,74.96
2019-02-19T02:38:31.934Z,74.69
2019-02-19T02:40:59.584Z,74.43
2019-02-19T02:43:27.251Z,75.04
2019-02-19T02:45:54.911Z,74.81
2019-02-19T02:48:22.576Z,74.94
2019-02-19T02:50:50.234Z,74.97
2019-02-19T02:53:17.889Z,75.13
2019-02-19T02:55:45.549Z,75.55
2019-02-19T02:58:13.210Z,75.24
2019-02-19T03:00:40.868Z,74.80
2019-02-19T03:03:08.536Z,75.46
2019-02-19T03:05:38.721Z,74.75
2019-02-19T03:08:06.974Z,74.86
2019-02-19T03:10:34.638Z,75.16
2019-02-19T03:13:02.306Z,74.58
2019-02-19T03:15:29.972Z,74.88
2019-02-19T03:17:57.635Z,75.28
2019-02-19T03:20:25.288Z,75.61
2019-02-19T03:22:52.943Z,75.80
2019-02-19T03:25:20.615Z,75.13
2019-02-19T03:27:48.265Z,75.33
2019-02-19T03:30:15.945Z,75.37
2019-02-19T03:32:43.671Z,75.85
2019-02-19T03:35:11.330Z,75.18
2019-02-19T03:37:39.032Z,75.45
2019-02-19T03:40:07.659Z,75.62
2019-02-19T03:42:35.688Z,75.85
2019-02-19T03:45:03.346Z,75.70
2019-02-19T03:47:31.040Z,75.46
2019-02-19T03:49:58.744Z,75.15
2019-02-19T03:52:26.398Z,75.01
2019-02-19T03:54:54.058Z,75.34
2019-02-19T03:57:21.717Z,75.85
2019-02-19T03:59:49.372Z,76.30
2019-02-19T04:02:17.039Z,76.61
2019-02-19T04:04:44.701Z,76.62
2019-02-19T04:07:12.353Z,76.35
2019-02-19T04:09:40.035Z,76.82
2019-02-19T04:12:07.682Z,76.84
2019-02-19T04:14:35.354Z,76.62
2019-02-19T04:17:03.017Z,76.65
2019-02-19T04:19:30.671Z,76.00
2019-02-19T04:21:58.338Z,76.14
2019-02-19T04:24:25.998Z,75.43
2019-02-19T04:26:53.654Z,75.52
2019-02-19T04:29:21.326Z,76.06
2019-02-19T04:31:48.977Z,75.83
2019-02-19T04:34:16.649Z,75.46
2019-02-19T04:36:44.304Z,76.32
2019-02-19T04:39:11.978Z,76.53
2019-02-19T04:41:39.652Z,76.32
2019-02-19T04:44:07.398Z,75.95
2019-02-19T04:46:35.055Z,76.55
2019-02-19T04:49:02.712Z,76.90
2019-02-19T04:51:30.382Z,76.30
2019-02-19T04:53:58.099Z,76.27
2019-02-19T04:56:25.766Z,76.21
2019-02-19T04:58:53.423Z,76.65
2019-02-19T05:01:21.087Z,76.99
2019-02-19T05:03:48.749Z,76.69
2019-02-19T05:06:16.417Z,76.63
2019-02-19T05:08:44.680Z,76.35
2019-02-19T05:11:12.519Z,76.44
2019-02-19T05:13:40.173Z,76.82
2019-02-19T05:16:07.842Z,76.80
2019-02-19T05:18:35.505Z,77.17
2019-02-19T05:21:03.181Z,77.46
2019-02-19T05:23:30.854Z,77.49
2019-02-19T05:25:58.514Z,78.07
2019-02-19T05:28:26.269Z,78.31
2019-02-19T05:30:53.926Z,78.28
2019-02-19T05:33:21.614Z,78.58
2019-02-19T05:35:49.339Z,78.64
2019-02-19T05:38:17.007Z,78.72
2019-02-19T05:40:44.682Z,78.44
2019-02-19T05:43:12.334Z,79.28
2019-02-19T05:45:40.007Z,79.35
2019-02-19T05:48:07.665Z,78.95
2019-02-19T05:50:35.341Z,79.32
2019-02-19T05:53:03.001Z,79.23
2019-02-19T05:55:30.674Z,79.11
2019-02-19T05:57:58.325Z,79.07
2019-02-19T06:00:25.982Z,79.38
2019-02-19T06:02:53.653Z,79.16
2019-02-19T06:05:21.416Z,78.78
2019-02-19T06:07:49.128Z,79.36
2019-02-19T06:10:16.797Z,79.00
2019-02-19T06:12:44.454Z,79.10
2019-02-19T06:15:12.135Z,79.12
2019-02-19T06:17:39.794Z,78.63
2019-02-19T06:20:07.451Z,78.54
2019-02-19T06:22:35.135Z,78.72
2019-02-19T06:25:02.796Z,78.62
2019-02-19T06:27:30.460Z,78.73
2019-02-19T06:29:58.138Z,78.30
2019-02-19T06:32:25.790Z,78.21
2019-02-19T06:34:53.457Z,77.71
2019-02-19T06:37:21.122Z,77.79
2019-02-19T06:39:48.782Z,77.90
2019-02-19T06:42:16.446Z,77.83
2019-02-19T06:44:44.129Z,77.64
2019-02-19T06:47:12.709Z,77.46
2019-02-19T06:49:40.425Z,77.44
2019-02-19T06:52:08.090Z,77.24
2019-02-19T06:54:35.753Z,76.65
2019-02-19T06:57:03.417Z,76.33
2019-02-19T06:59:31.093Z,75.64
2019-02-19T07:02:20.686Z,75.35
2019-02-19T07:04:52.245Z,74.96
2019-02-19T07:07:19.925Z,74.76
2019-02-19T07:09:47.660Z,73.91
2019-02-19T07:12:15.318Z,73.29
2019-02-19T07:14:42.977Z,73.23
2019-02-19T07:17:15.742Z,73.10
2019-02-19T07:19:40.009Z,72.88
2019-02-19T07:22:07.661Z,71.67
2019-02-19T07:24:35.327Z,71.39
2019-02-19T07:27:02.984Z,71.10
2019-02-19T07:29:30.648Z,70.88
2019-02-19T07:31:58.305Z,70.96
2019-02-19T07:34:25.973Z,70.27
2019-02-19T07:36:53.621Z,70.17
2019-02-19T07:39:21.286Z,69.87
2019-02-19T07:41:48.940Z,69.81
2019-02-19T07:44:16.606Z,69.42
2019-02-19T07:46:44.265Z,69.31
2019-02-19T07:49:11.925Z,68.89
2019-02-19T07:51:39.585Z,68.44
2019-02-19T07:54:07.254Z,67.69
2019-02-19T07:56:34.918Z,67.39
2019-02-19T07:59:02.582Z,67.37
2019-02-19T08:01:30.255Z,67.10
2019-02-19T08:03:57.909Z,66.93
2019-02-19T08:06:25.568Z,66.56
2019-02-19T08:08:53.242Z,66.10
2019-02-19T08:11:20.902Z,65.88
2019-02-19T08:13:48.573Z,65.78
2019-02-19T08:16:16.230Z,65.26
2019-02-19T08:18:43.905Z,64.99
2019-02-19T08:21:11.555Z,64.37
2019-02-19T08:23:39.225Z,64.40
2019-02-19T08:26:06.877Z,64.68
2019-02-19T08:28:34.537Z,64.32
2019-02-19T08:31:02.213Z,63.98
2019-02-19T08:33:29.878Z,63.92
2019-02-19T08:35:57.533Z,63.35
2019-02-19T08:38:25.227Z,62.88
2019-02-19T08:40:52.918Z,62.53
2019-02-19T08:43:20.576Z,62.13
2019-02-19T08:45:48.238Z,62.21
2019-02-19T08:48:15.894Z,61.99
2019-02-19T08:50:43.575Z,62.21
2019-02-19T08:53:11.238Z,61.13
2019-02-19T08:55:38.899Z,60.85
2019-02-19T08:58:06.551Z,60.79
2019-02-19T09:00:34.237Z,59.76
2019-02-19T09:03:01.899Z,60.09
2019-02-19T09:05:29.552Z,59.63
2019-02-19T09:07:57.214Z,58.14
2019-02-19T09:10:24.879Z,58.03
2019-02-19T09:12:52.557Z,58.41
2019-02-19T09:15:20.226Z,58.11
2019-02-19T09:17:51.873Z,56.79
2019-02-19T09:20:17.338Z,56.28
2019-02-19T09:22:44.994Z,56.01
2019-02-19T09:25:12.658Z,54.77
2019-02-19T09:27:40.325Z,55.25
2019-02-19T09:30:07.993Z,54.63
2019-02-19T09:32:35.657Z,53.32
2019-02-19T09:35:03.327Z,52.89
2019-02-19T09:37:30.991Z,52.32
2019-02-19T09:39:58.672Z,52.05
2019-02-19T09:42:26.410Z,49.73
2019-02-19T09:44:54.074Z,49.92
2019-02-19T09:47:21.747Z,49.08
2019-02-19T09:49:49.437Z,49.32
2019-02-19T09:52:17.081Z,47.92
2019-02-19T09:54:45.151Z,47.75
2019-02-19T09:57:12.809Z,48.61
2019-02-19T09:59:40.469Z,48.21
2019-02-19T10:02:08.121Z,48.37
2019-02-19T10:04:35.781Z,47.56
2019-02-19T10:07:03.551Z,46.85
2019-02-19T10:09:31.235Z,47.00
2019-02-19T10:11:58.963Z,47.20
2019-02-19T10:14:26.623Z,46.50
2019-02-19T10:16:54.395Z,46.49
2019-02-19T10:19:22.383Z,47.39
2019-02-19T10:21:50.106Z,45.98
2019-02-19T10:24:17.811Z,45.23
2019-02-19T10:26:45.578Z,46.15
2019-02-19T10:29:13.228Z,45.47
2019-02-19T10:31:40.945Z,45.40
2019-02-19T10:34:08.651Z,45.19
2019-02-19T10:36:36.310Z,45.88
2019-02-19T10:39:04.998Z,45.06
2019-02-19T10:41:32.663Z,45.59
2019-02-19T10:44:00.426Z,46.19
2019-02-19T10:46:28.091Z,46.06
2019-02-19T10:48:55.745Z,47.08
2019-02-19T10:51:23.401Z,47.18
2019-02-19T10:53:51.075Z,46.96
2019-02-19T10:56:18.736Z,46.56
2019-02-19T10:58:46.400Z,47.20
2019-02-19T11:01:14.069Z,47.32
2019-02-19T11:03:41.733Z,47.63
2019-02-19T11:06:09.385Z,47.73
2019-02-19T11:08:37.037Z,47.14
2019-02-19T11:11:04.701Z,47.27
2019-02-19T11:13:32.354Z,47.41
2019-02-19T11:16:00.015Z,48.50
2019-02-19T11:18:28.744Z,47.11
2019-02-19T11:20:56.722Z,47.20
2019-02-19T11:23:24.385Z,47.08
2019-02-19T11:25:52.048Z,47.40
2019-02-19T11:28:19.705Z,46.72
2019-02-19T11:30:47.397Z,47.06
2019-02-19T11:33:15.041Z,46.54
2019-02-19T11:35:42.711Z,46.75
2019-02-19T11:38:10.375Z,46.52
2019-02-19T11:40:38.042Z,47.04
2019-02-19T11:43:05.703Z,47.50
2019-02-19T11:45:33.357Z,47.95
2019-02-19T11:48:01.010Z,47.38
2019-02-19T11:50:28.743Z,47.98
2019-02-19T11:52:56.930Z,48.64
2019-02-19T11:55:24.602Z,49.34
2019-02-19T11:57:52.270Z,49.86
2019-02-19T12:00:23.994Z,49.73
2019-02-19T12:02:51.644Z,50.93
2019-02-19T12:05:19.310Z,50.64
2019-02-19T12:07:46.978Z,50.57
2019-02-19T12:10:14.633Z,51.06
2019-02-19T12:12:42.297Z,51.32
2019-02-19T12:15:09.950Z,51.37
2019-02-19T12:17:37.622Z,52.19
2019-02-19T12:20:05.288Z,52.59
2019-02-19T12:22:32.940Z,52.96
2019-02-19T12:25:00.614Z,52.88
2019-02-19T12:27:28.274Z,52.74
2019-02-19T12:29:55.944Z,53.35
2019-02-19T12:32:23.600Z,53.54
2019-02-19T12:34:51.268Z,53.84
2019-02-19T12:37:18.928Z,54.36
2019-02-19T12:39:46.598Z,54.57
2019-02-19T12:42:14.264Z,54.42
2019-02-19T12:44:41.934Z,54.77
2019-02-19T12:47:09.610Z,54.88
2019-02-19T12:49:37.320Z,54.90
2019-02-19T12:52:05.023Z,55.24
2019-02-19T12:54:32.686Z,55.53
2019-02-19T12:57:00.360Z,56.22
2019-02-19T12:59:28.094Z,56.79
2019-02-19T13:01:55.762Z,57.98
2019-02-19T13:04:23.455Z,57.97
2019-02-19T13:06:51.174Z,57.55
2019-02-19T13:09:18.843Z,58.78
2019-02-19T13:11:46.501Z,60.45
2019-02-19T13:14:14.158Z,61.25
2019-02-19T13:16:41.828Z,61.64
2019-02-19T13:19:09.493Z,61.88
2019-02-19T13:21:37.136Z,62.31
2019-02-19T13:24:04.789Z,62.06
2019-02-19T13:26:32.474Z,62.93
2019-02-19T13:29:00.170Z,62.75
2019-02-19T13:31:27.851Z,62.87
2019-02-19T13:33:55.506Z,62.68
2019-02-19T13:36:23.170Z,63.40
2019-02-19T13:38:50.827Z,63.15
2019-02-19T13:41:18.514Z,63.64
2019-02-19T13:43:46.180Z,63.55
2019-02-19T13:46:13.859Z,63.77
2019-02-19T13:48:41.506Z,63.99
2019-02-19T13:51:09.170Z,64.19
2019-02-19T13:53:42.672Z,64.33
2019-02-19T13:56:10.323Z,64.42
2019-02-19T13:58:37.983Z,64.45
2019-02-19T14:01:05.636Z,64.97
2019-02-19T14:03:33.305Z,65.54
2019-02-19T14:06:00.982Z,66.06
2019-02-19T14:08:28.639Z,66.45
2019-02-19T14:10:56.285Z,66.79
2019-02-19T14:13:23.946Z,68.00
2019-02-19T14:16:00.099Z,68.29
2019-02-19T14:18:47.134Z,68.03
2019-02-19T14:21:20.049Z,68.88
2019-02-19T14:24:04.909Z,69.19
2019-02-19T14:26:43.737Z,70.93
2019-02-19T14:29:16.727Z,71.55
2019-02-19T14:31:58.809Z,71.83
2019-02-19T14:34:45.521Z,71.47
2019-02-19T14:37:35.215Z,71.24
2019-02-19T14:40:10.506Z,72.85
2019-02-19T14:42:54.478Z,74.13
2019-02-19T14:45:42.057Z,73.88
2019-02-19T14:48:31.606Z,73.38
2019-02-19T14:51:06.915Z,74.20
2019-02-19T14:53:43.601Z,75.33
2019-02-19T14:56:21.090Z,75.25
2019-02-19T14:58:59.415Z,75.81
2019-02-19T15:01:48.043Z,75.62
2019-02-19T15:04:31.185Z,75.79
2019-02-19T15:07:13.521Z,75.13
2019-02-19T15:09:55.597Z,75.81
2019-02-19T15:12:36.574Z,74.68
2019-02-19T15:15:12.539Z,74.80
2019-02-19T15:17:51.766Z,73.97
2019-02-19T15:20:24.341Z,73.47
2019-02-19T15:23:01.516Z,74.51
2019-02-19T15:25:44.044Z,74.87
2019-02-19T15:28:16.852Z,74.08
2019-02-19T15:30:49.826Z,74.16
2019-02-19T15:33:29.235Z,73.98
2019-02-19T15:36:17.991Z,73.81
2019-02-19T15:39:07.878Z,74.12
2019-02-19T15:41:51.820Z,73.40
2019-02-19T15:44:30.354Z,73.18
2019-02-19T15:47:19.969Z,73.51
2019-02-19T15:49:58.958Z,74.33
2019-02-19T15:52:36.849Z,73.95
2019-02-19T15:55:13.324Z,73.17
2019-02-19T15:57:51.637Z,71.40
2019-02-19T16:00:39.386Z,71.22
2019-02-19T16:03:12.121Z,70.90
2019-02-19T16:05:53.838Z,70.74
2019-02-19T16:08:26.707Z,71.30
2019-02-19T16:11:13.403Z,71.96
2019-02-19T16:13:55.573Z,72.25
2019-02-19T16:16:28.725Z,72.35
2019-02-19T16:19:05.599Z,72.45
2019-02-19T16:21:42.573Z,71.83
2019-02-19T16:24:15.523Z,72.05
2019-02-19T16:26:50.512Z,72.47
2019-02-19T16:29:28.092Z,72.84
2019-02-19T16:32:00.954Z,73.42
2019-02-19T16:34:39.733Z,74.27
2019-02-19T16:37:15.459Z,73.86
2019-02-19T16:39:53.161Z,74.56
2019-02-19T16:42:26.157Z,74.64
2019-02-19T16:45:04.357Z,74.89
2019-02-19T16:47:46.154Z,75.46
2019-02-19T16:50:23.638Z,75.97
2019-02-19T16:53:10.328Z,76.16
2019-02-19T16:55:51.947Z,76.06
2019-02-19T16:58:30.046Z,76.44
2019-02-19T17:01:03.745Z,76.21
2019-02-19T17:03:36.945Z,76.35
2019-02-19T17:06:19.358Z,75.95
2019-02-19T17:09:06.953Z,75.45
2019-02-19T17:11:42.953Z,76.08
2019-02-19T17:14:22.382Z,76.69
2019-02-19T17:16:55.372Z,76.31
2019-02-19T17:19:42.077Z,76.59
2019-02-19T17:22:32.813Z,76.62
2019-02-19T17:25:05.746Z,76.19
2019-02-19T17:27:38.723Z,76.24
2019-02-19T17:30:22.794Z,74.61
2019-02-19T17:32:58.551Z,75.13
2019-02-19T17:35:35.954Z,75.34
2019-02-19T17:38:14.898Z,74.73
2019-02-19T17:40:55.550Z,75.73
2019-02-19T17:43:31.184Z,75.74
2019-02-19T17:46:18.890Z,75.03
2019-02-19T17:49:05.594Z,74.81
2019-02-19T17:51:56.153Z,74.77
2019-02-19T17:54:32.315Z,75.00
2019-02-19T17:57:05.161Z,74.79
2019-02-19T17:59:40.717Z,75.06
2019-02-19T18:02:14.018Z,75.03
2019-02-19T18:04:46.911Z,75.34
2019-02-19T18:07:34.641Z,75.52
2019-02-19T18:10:23.476Z,75.10
2019-02-19T18:13:03.137Z,74.50
2019-02-19T18:15:51.794Z,75.59
2019-02-19T18:18:28.771Z,76.15
2019-02-19T18:20:56.427Z,76.86
2019-02-19T18:23:24.231Z,76.91
2019-02-19T18:25:51.879Z,76.33
2019-02-19T18:28:19.540Z,75.13
2019-02-19T18:30:47.219Z,75.65
2019-02-19T18:33:14.940Z,75.57
2019-02-19T18:35:42.606Z,76.03
2019-02-19T18:38:10.243Z,76.29
2019-02-19T18:40:37.910Z,76.27
2019-02-19T18:43:05.646Z,76.46
2019-02-19T18:45:33.298Z,76.26
2019-02-19T18:48:00.984Z,76.18
2019-02-19T18:50:28.659Z,76.35
2019-02-19T18:52:56.309Z,74.92
2019-02-19T18:55:23.974Z,75.01
2019-02-19T18:57:51.634Z,75.04
2019-02-19T19:00:19.300Z,74.62
2019-02-19T19:02:46.973Z,73.77
2019-02-19T19:05:14.637Z,73.89
2019-02-19T19:07:42.299Z,73.64
2019-02-19T19:10:09.966Z,72.81
2019-02-19T19:12:37.620Z,72.64
2019-02-19T19:15:05.277Z,72.65
2019-02-19T19:17:32.932Z,72.37
2019-02-19T19:20:00.594Z,72.14
2019-02-19T19:22:28.244Z,72.07
2019-02-19T19:24:55.902Z,71.68
2019-02-19T19:27:23.559Z,71.62
2019-02-19T19:29:51.225Z,70.35
2019-02-19T19:32:18.869Z,70.86
2019-02-19T19:34:46.524Z,70.53
2019-02-19T19:37:14.201Z,70.09
2019-02-19T19:39:41.933Z,70.11
2019-02-19T19:42:09.595Z,69.89
2019-02-19T19:44:37.250Z,69.59
2019-02-19T19:47:04.910Z,69.81
2019-02-19T19:49:32.577Z,69.08
2019-02-19T19:52:00.426Z,69.26
2019-02-19T19:54:28.161Z,68.40
2019-02-19T19:56:55.837Z,69.72
2019-02-19T19:59:23.568Z,68.96
2019-02-19T20:01:51.223Z,68.31
2019-02-19T20:04:18.882Z,68.43
2019-02-19T20:06:46.541Z,68.40
2019-02-19T20:09:14.246Z,69.24
2019-02-19T20:11:41.904Z,68.52
2019-02-19T20:14:09.570Z,68.90
2019-02-19T20:16:37.243Z,68.96
2019-02-19T20:19:04.893Z,67.64
2019-02-19T20:21:32.561Z,68.36
2019-02-19T20:24:00.210Z,66.96
2019-02-19T20:26:27.871Z,66.40
2019-02-19T20:28:55.536Z,67.18
2019-02-19T20:31:23.197Z,67.86
2019-02-19T20:33:50.842Z,67.54
2019-02-19T20:36:18.517Z,67.18
2019-02-19T20:38:46.182Z,66.87
2019-02-19T20:41:13.841Z,67.03
2019-02-19T20:43:41.496Z,67.33
2019-02-19T20:46:09.164Z,66.94
2019-02-19T20:48:36.822Z,66.33
2019-02-19T20:51:04.478Z,66.84
2019-02-19T20:53:32.135Z,66.46
2019-02-19T20:55:59.794Z,66.59
2019-02-19T20:58:27.441Z,66.38
2019-02-19T21:00:55.103Z,67.15
2019-02-19T21:03:22.780Z,67.32
2019-02-19T21:05:50.506Z,66.92
2019-02-19T21:08:18.262Z,67.30
2019-02-19T21:10:45.934Z,66.44
2019-02-19T21:13:13.590Z,66.62
2019-02-19T21:15:41.243Z,67.22
2019-02-19T21:18:08.891Z,67.46
2019-02-19T21:20:36.555Z,66.20
2019-02-19T21:23:04.227Z,66.83
2019-02-19T21:25:31.887Z,66.27
2019-02-19T21:27:59.541Z,65.69
2019-02-19T21:30:27.186Z,66.19
2019-02-19T21:32:54.859Z,65.60
2019-02-19T21:35:22.520Z,65.80
2019-02-19T21:37:50.189Z,66.42
2019-02-19T21:40:17.850Z,66.38
2019-02-19T21:42:45.522Z,66.42
2019-02-19T21:45:13.189Z,65.76
2019-02-19T21:47:40.934Z,65.82
2019-02-19T21:50:08.579Z,65.74
2019-02-19T21:52:36.230Z,65.67
2019-02-19T21:55:04.611Z,64.92
2019-02-19T21:57:32.446Z,65.76
2019-02-19T22:00:00.172Z,65.35
2019-02-19T22:02:28.046Z,65.49
2019-02-19T22:04:55.698Z,66.03
2019-02-19T22:07:23.354Z,66.16
2019-02-19T22:09:51.013Z,66.87
2019-02-19T22:12:18.669Z,66.06
2019-02-19T22:14:46.329Z,65.95
2019-02-19T22:17:13.992Z,66.39
2019-02-19T22:19:41.642Z,66.26
2019-02-19T22:22:13.904Z,66.84
2019-02-19T22:24:41.565Z,66.93
2019-02-19T22:27:09.221Z,66.80
2019-02-19T22:29:36.876Z,66.67
2019-02-19T22:32:05.010Z,67.30
2019-02-19T22:34:32.669Z,66.76
2019-02-19T22:37:00.340Z,67.34
2019-02-19T22:39:27.988Z,66.85
2019-02-19T22:41:55.648Z,66.44
2019-02-19T22:44:23.306Z,66.89
2019-02-19T22:46:50.965Z,66.19
2019-02-19T22:49:18.615Z,66.37
2019-02-19T22:51:46.275Z,66.66
2019-02-19T22:54:21.117Z,66.47
2019-02-19T22:56:48.777Z,66.15
2019-02-19T22:59:16.432Z,66.06
2019-02-19T23:01:48.061Z,67.12
2019-02-19T23:04:15.710Z,66.94
2019-02-19T23:06:43.365Z,66.86
2019-02-19T23:09:11.031Z,67.31
2019-02-19T23:11:38.745Z,67.29
2019-02-19T23:14:06.434Z,67.49
2019-02-19T23:16:34.096Z,67.79
2019-02-19T23:19:01.765Z,67.41
2019-02-19T23:21:29.417Z,67.80
2019-02-19T23:23:57.066Z,68.48
2019-02-19T23:26:24.730Z,68.52
2019-02-19T23:28:52.474Z,69.20
2019-02-19T23:31:20.135Z,68.73
2019-02-19T23:33:47.790Z,68.43
2019-02-19T23:36:20.951Z,68.07
2019-02-19T23:38:48.604Z,68.25
2019-02-19T23:41:16.344Z,68.60
2019-02-19T23:43:44.002Z,68.63
2019-02-19T23:46:11.657Z,68.85
2019-02-19T23:48:39.316Z,68.97
2019-02-19T23:51:06.986Z,68.51
2019-02-19T23:53:34.634Z,68.01
2019-02-19T23:56:02.298Z,68.61
2019-02-19T23:58:29.954Z,68.80
